createdAt,value
2023-05-13T00:00:53.819Z,23.00
2023-05-13T00:05:57.173Z,21.33
2023-05-13T00:11:01.502Z,28.50
2023-05-13T00:16:05.609Z,23.00
2023-05-13T00:21:08.946Z,32.00
2023-05-13T00:26:12.256Z,26.00
2023-05-13T00:31:15.555Z,29.50
2023-05-13T00:36:19.325Z,30.00
2023-05-13T00:41:23.400Z,26.00
2023-05-13T00:46:33.550Z,20.00
2023-05-13T00:51:36.869Z,29.00
2023-05-13T00:56:39.980Z,30.00
2023-05-13T01:02:14.654Z,27.50
2023-05-13T01:07:57.601Z,30.00
2023-05-13T01:13:06.852Z,26.00
2023-05-13T01:18:15.677Z,23.00
2023-05-13T01:23:19.441Z,27.00
2023-05-13T01:28:22.844Z,26.67
2023-05-13T01:33:28.440Z,30.50
2023-05-13T01:38:32.145Z,26.50
2023-05-13T01:43:35.766Z,27.00
2023-05-13T01:48:39.400Z,26.33
2023-05-13T01:53:43.154Z,23.67
2023-05-13T01:58:46.473Z,25.00
2023-05-13T02:03:50.408Z,23.33
2023-05-13T02:08:53.760Z,25.00
2023-05-13T02:13:57.111Z,27.33
2023-05-13T02:19:00.417Z,27.00
2023-05-13T02:24:05.101Z,22.00
2023-05-13T02:29:08.569Z,24.50
2023-05-13T02:34:12.533Z,21.00
2023-05-13T02:39:17.279Z,20.00
2023-05-13T02:44:20.479Z,23.33
2023-05-13T02:49:24.073Z,25.50
2023-05-13T02:54:27.235Z,25.00
2023-05-13T02:59:30.432Z,26.50
2023-05-13T03:04:33.718Z,24.00
2023-05-13T03:09:39.889Z,26.00
2023-05-13T03:14:44.658Z,27.00
2023-05-13T03:19:47.885Z,22.50
2023-05-13T03:24:51.329Z,24.00
2023-05-13T03:29:55.729Z,23.00
2023-05-13T03:35:03.970Z,26.50
2023-05-13T03:40:09.602Z,28.00
2023-05-13T03:45:12.812Z,22.00
2023-05-13T03:50:17.499Z,26.50
2023-05-13T03:55:20.959Z,23.00
2023-05-13T04:00:24.385Z,6.50
2023-05-13T04:05:27.749Z,22.00
2023-05-13T04:10:31.097Z,23.00
2023-05-13T04:15:34.342Z,20.00
2023-05-13T04:20:40.802Z,21.00
2023-05-13T04:25:43.992Z,20.00
2023-05-13T04:30:47.226Z,19.33
2023-05-13T04:35:50.435Z,22.00
2023-05-13T04:40:54.730Z,18.50
2023-05-13T04:46:05.574Z,16.00
2023-05-13T04:51:09.014Z,17.00
2023-05-13T04:56:12.781Z,16.50
2023-05-13T05:01:16.099Z,18.00
2023-05-13T05:06:20.013Z,18.00
2023-05-13T05:11:23.234Z,15.00
2023-05-13T05:16:28.138Z,16.33
2023-05-13T05:21:33.045Z,14.00
2023-05-13T05:26:36.340Z,13.00
2023-05-13T05:31:39.652Z,15.00
2023-05-13T05:36:43.102Z,14.33
2023-05-13T05:41:48.029Z,16.00
2023-05-13T05:46:53.024Z,13.67
2023-05-13T05:51:56.272Z,11.33
2023-05-13T05:57:01.499Z,15.50
2023-05-13T06:02:04.961Z,14.00
2023-05-13T06:07:09.140Z,14.00
2023-05-13T06:12:12.486Z,13.50
2023-05-13T06:17:15.872Z,15.50
2023-05-13T06:22:19.153Z,14.00
2023-05-13T06:27:22.630Z,13.50
2023-05-13T06:32:25.871Z,11.00
2023-05-13T06:37:29.266Z,10.00
2023-05-13T06:42:32.835Z,11.00
2023-05-13T06:47:38.138Z,12.00
2023-05-13T06:52:42.044Z,12.00
2023-05-13T06:57:46.986Z,10.67
2023-05-13T07:02:50.369Z,15.00
2023-05-13T07:07:53.921Z,9.67
2023-05-13T07:12:57.158Z,9.00
2023-05-13T07:18:01.789Z,11.00
2023-05-13T07:23:05.531Z,10.00
2023-05-13T07:28:08.724Z,9.00
2023-05-13T07:33:11.914Z,9.33
2023-05-13T07:38:15.142Z,11.67
2023-05-13T07:43:23.946Z,10.50
2023-05-13T07:48:28.600Z,9.33
2023-05-13T07:53:31.913Z,12.00
2023-05-13T07:58:35.202Z,7.00
2023-05-13T08:03:38.569Z,12.00
2023-05-13T08:08:42.176Z,7.00
2023-05-13T08:13:45.585Z,10.00
2023-05-13T08:18:48.907Z,3.00
2023-05-13T08:23:53.223Z,7.00
2023-05-13T08:28:57.350Z,5.00
2023-05-13T08:34:00.701Z,5.00
2023-05-13T08:39:04.047Z,4.00
2023-05-13T08:44:07.676Z,7.00
2023-05-13T08:49:11.142Z,7.00
2023-05-13T08:54:16.702Z,9.00
2023-05-13T08:59:20.046Z,7.50
2023-05-13T09:04:23.328Z,5.00
2023-05-13T09:09:26.577Z,7.00
2023-05-13T09:14:34.083Z,4.00
2023-05-13T09:19:37.507Z,10.00
2023-05-13T09:24:54.123Z,10.00
2023-05-13T09:30:01.215Z,5.00
2023-05-13T09:35:16.972Z,5.00
2023-05-13T09:40:21.230Z,5.67
2023-05-13T09:45:27.023Z,3.00
2023-05-13T09:50:31.895Z,9.00
2023-05-13T09:55:35.183Z,4.00
2023-05-13T10:00:40.802Z,7.33
2023-05-13T10:05:45.180Z,9.50
2023-05-13T10:10:51.515Z,6.50
2023-05-13T10:15:55.908Z,7.67
2023-05-13T10:20:59.639Z,5.00
2023-05-13T10:26:03.321Z,5.00
2023-05-13T10:31:06.586Z,10.00
2023-05-13T10:36:21.148Z,8.50
2023-05-13T10:41:27.808Z,9.00
2023-05-13T10:46:31.117Z,9.00
2023-05-13T10:51:34.392Z,8.00
2023-05-13T10:56:37.917Z,9.00
2023-05-13T11:01:44.678Z,10.00
2023-05-13T11:06:49.599Z,11.00
2023-05-13T11:11:58.159Z,5.50
2023-05-13T11:17:25.190Z,8.50
2023-05-13T11:22:37.754Z,12.00
2023-05-13T11:27:43.804Z,8.00
2023-05-13T11:33:12.517Z,6.00
2023-05-13T11:38:27.289Z,7.00
2023-05-13T11:43:32.860Z,9.33
2023-05-13T11:48:44.357Z,5.50
2023-05-13T11:53:47.730Z,6.50
2023-05-13T11:58:51.810Z,9.00
2023-05-13T12:04:02.637Z,5.00
2023-05-13T12:09:07.525Z,4.00
2023-05-13T12:14:11.016Z,5.33
2023-05-13T12:19:14.319Z,6.00
2023-05-13T12:24:21.780Z,11.00
2023-05-13T12:29:24.981Z,10.00
2023-05-13T12:34:33.994Z,7.00
2023-05-13T12:39:38.846Z,5.00
2023-05-13T12:44:44.438Z,7.00
2023-05-13T12:49:55.891Z,7.00
2023-05-13T12:54:59.167Z,6.00
2023-05-13T13:00:03.355Z,8.00
2023-05-13T13:05:07.227Z,6.00
2023-05-13T13:10:11.796Z,9.00
2023-05-13T13:15:15.950Z,8.00
2023-05-13T13:20:19.058Z,8.00
2023-05-13T13:25:22.669Z,5.00
2023-05-13T13:30:26.556Z,8.33
2023-05-13T13:35:29.741Z,11.50
2023-05-13T13:40:32.986Z,8.00
2023-05-13T13:45:36.830Z,6.00
2023-05-13T13:50:40.000Z,8.67
2023-05-13T13:55:43.396Z,9.00
2023-05-13T14:00:46.580Z,8.00
2023-05-13T14:05:50.367Z,6.00
2023-05-13T14:10:59.039Z,5.50
2023-05-13T14:16:04.232Z,9.50
2023-05-13T14:21:07.428Z,11.00
2023-05-13T14:26:13.435Z,10.00
2023-05-13T14:31:16.708Z,9.33
2023-05-13T14:36:22.548Z,8.33
2023-05-13T14:41:26.521Z,8.00
2023-05-13T14:46:30.111Z,9.00
2023-05-13T14:51:36.197Z,7.50
2023-05-13T14:56:39.439Z,10.00
2023-05-13T15:01:42.586Z,5.00
2023-05-13T15:06:45.834Z,9.00
2023-05-13T15:11:49.033Z,5.50
2023-05-13T15:16:52.815Z,6.00
2023-05-13T15:21:56.032Z,3.50
2023-05-13T15:26:59.193Z,8.00
2023-05-13T15:32:03.308Z,5.00
2023-05-13T15:37:06.532Z,6.50
2023-05-13T15:42:09.619Z,6.00
2023-05-13T15:47:12.911Z,7.00
2023-05-13T15:52:17.071Z,6.67
2023-05-13T15:57:20.204Z,9.00
2023-05-13T16:02:23.369Z,8.00
2023-05-13T16:07:26.514Z,9.50
2023-05-13T16:12:31.002Z,7.00
2023-05-13T16:17:37.024Z,9.00
2023-05-13T16:22:40.686Z,8.50
2023-05-13T16:27:43.895Z,6.00
2023-05-13T16:32:49.218Z,7.00
2023-05-13T16:37:52.401Z,6.00
2023-05-13T16:42:58.822Z,7.00
2023-05-13T16:48:03.487Z,6.33
2023-05-13T16:53:06.793Z,7.00
2023-05-13T16:58:10.530Z,10.00
2023-05-13T17:03:13.816Z,8.00
2023-05-13T17:08:19.155Z,12.50
2023-05-13T17:13:22.397Z,7.67
2023-05-13T17:18:26.605Z,18.00
2023-05-13T17:23:35.977Z,11.00
2023-05-13T17:28:40.429Z,16.00
2023-05-13T17:33:43.694Z,20.33
2023-05-13T17:38:46.762Z,19.50
2023-05-13T17:43:49.969Z,18.00
2023-05-13T17:48:54.115Z,20.00
2023-05-13T17:53:57.599Z,19.00
2023-05-13T17:59:00.790Z,25.00
2023-05-13T18:04:04.049Z,25.00
2023-05-13T18:09:08.534Z,31.50
2023-05-13T18:14:19.425Z,35.00
2023-05-13T18:19:25.494Z,30.50
2023-05-13T18:24:28.893Z,40.00
2023-05-13T18:29:32.037Z,29.33
2023-05-13T18:34:36.803Z,32.00
2023-05-13T18:39:40.164Z,34.00
2023-05-13T18:44:43.725Z,30.50
2023-05-13T18:49:47.001Z,39.50
2023-05-13T18:54:50.176Z,42.00
2023-05-13T18:59:53.583Z,41.00
2023-05-13T19:04:56.915Z,34.00
2023-05-13T19:10:00.213Z,39.00
2023-05-13T19:15:03.518Z,47.00
2023-05-13T19:20:07.606Z,59.00
2023-05-13T19:25:11.154Z,65.00
2023-05-13T19:30:14.426Z,64.00
2023-05-13T19:35:17.710Z,61.00
2023-05-13T19:40:21.078Z,57.00
2023-05-13T19:45:24.590Z,40.00
2023-05-13T19:50:27.897Z,30.00
2023-05-13T19:55:32.004Z,27.50
2023-05-13T20:00:35.340Z,29.00
2023-05-13T20:05:40.153Z,27.50
2023-05-13T20:10:43.395Z,29.67
2023-05-13T20:15:46.694Z,46.00
2023-05-13T20:20:50.004Z,45.00
2023-05-13T20:25:57.461Z,44.50
2023-05-13T20:31:04.796Z,42.00
2023-05-13T20:36:08.050Z,38.33
2023-05-13T20:41:11.425Z,31.50
2023-05-13T20:46:17.069Z,45.00
2023-05-13T20:51:20.597Z,36.00
2023-05-13T20:56:23.690Z,46.00
2023-05-13T21:01:26.988Z,37.00
2023-05-13T21:06:30.271Z,39.00
2023-05-13T21:11:33.447Z,40.00
2023-05-13T21:16:36.646Z,37.00
2023-05-13T21:21:39.893Z,34.50
2023-05-13T21:26:43.129Z,34.00
2023-05-13T21:31:47.547Z,31.00
2023-05-13T21:36:52.042Z,27.50
2023-05-13T21:41:55.335Z,19.00
2023-05-13T21:46:58.454Z,26.50
2023-05-13T21:52:02.378Z,27.00
2023-05-13T21:57:05.862Z,26.33
2023-05-13T22:02:09.527Z,26.00
2023-05-13T22:07:12.741Z,24.50
2023-05-13T22:12:15.852Z,25.00
2023-05-13T22:17:19.758Z,26.00
2023-05-13T22:22:23.184Z,28.00
2023-05-13T22:27:26.367Z,25.00
2023-05-13T22:32:29.595Z,25.33
2023-05-13T22:37:32.776Z,27.00
2023-05-13T22:42:35.909Z,23.50
2023-05-13T22:47:39.326Z,28.00
2023-05-13T22:52:42.659Z,24.00
2023-05-13T22:57:45.837Z,30.50
2023-05-13T23:02:49.122Z,26.67
2023-05-13T23:07:52.479Z,25.00
2023-05-13T23:12:55.662Z,29.00
2023-05-13T23:17:58.904Z,32.00
2023-05-13T23:23:02.236Z,34.00
2023-05-13T23:28:05.329Z,35.33
2023-05-13T23:33:08.687Z,37.50
2023-05-13T23:38:11.831Z,38.00
2023-05-13T23:43:14.924Z,37.00
2023-05-13T23:48:19.295Z,28.50
2023-05-13T23:53:22.481Z,28.00
2023-05-13T23:58:25.698Z,36.67
